Time;durP1;ratioP1;P1;durP2;ratioP2;P2;SDS_P1;SDS_P2;PMS_P1;PMS_P2;Temp;Humidity;BMP_temperature;BMP_pressure;BME280_temperature;BME280_humidity;BME280_pressure;Samples;Min_cycle;Max_cycle;Signal;HPM_P1;HPM_P2
2023/01/14 00:01:36;;;;;;;15.30;2.97;;;;;;;6.29;100.00;101397.56;5029875;28;20033;-79
2023/01/14 00:04:01;;;;;;;17.63;3.83;;;;;;;6.28;100.00;101397.72;5030034;28;20536;-79
2023/01/14 00:06:32;;;;;;;10.20;2.95;;;;;;;6.12;100.00;101377.25;5030018;28;20033;-79
2023/01/14 00:09:03;;;;;;;11.35;3.88;;;;;;;6.20;100.00;101393.19;5030119;28;20017;-79
2023/01/14 00:11:46;;;;;;;13.70;3.23;;;;;;;6.28;100.00;101410.94;5029735;28;20041;-78
2023/01/14 00:14:15;;;;;;;13.90;3.33;;;;;;;6.28;100.00;101424.19;5029953;28;20544;-79
2023/01/14 00:16:41;;;;;;;11.65;3.78;;;;;;;6.20;100.00;101416.19;5029746;28;20049;-79
2023/01/14 00:19:07;;;;;;;13.10;3.72;;;;;;;6.12;100.00;101409.00;5029921;28;20148;-79
2023/01/14 00:21:33;;;;;;;13.48;3.47;;;;;;;6.22;100.00;101420.34;5029872;28;20400;-79
2023/01/14 00:23:58;;;;;;;15.55;4.22;;;;;;;6.06;100.00;101397.22;5029726;28;20036;-78
2023/01/14 00:26:25;;;;;;;14.80;3.63;;;;;;;6.16;100.00;101423.63;5029806;28;20035;-78
2023/01/14 00:28:52;;;;;;;17.73;3.17;;;;;;;5.99;100.00;101412.06;5029601;28;20033;-78
2023/01/14 00:31:22;;;;;;;22.77;3.15;;;;;;;5.97;100.00;101410.53;5029745;28;20481;-78
2023/01/14 00:33:48;;;;;;;14.88;2.30;;;;;;;6.09;100.00;101431.34;5029547;28;20520;-78
2023/01/14 00:36:15;;;;;;;9.05;3.47;;;;;;;5.98;100.00;101409.56;5029181;28;20108;-79
2023/01/14 00:38:41;;;;;;;11.27;3.35;;;;;;;5.89;100.00;101393.59;5029323;28;20056;-79
2023/01/14 00:41:10;;;;;;;17.27;4.15;;;;;;;5.92;100.00;101401.22;5011955;28;20049;-79
2023/01/14 00:43:37;;;;;;;14.15;2.92;;;;;;;5.83;100.00;101396.00;5029367;28;20033;-79
2023/01/14 00:46:10;;;;;;;10.90;4.30;;;;;;;5.85;100.00;101412.56;5011673;28;20057;-79
2023/01/14 00:48:36;;;;;;;14.60;3.85;;;;;;;5.71;100.00;101400.69;5029368;28;20033;-78
2023/01/14 00:51:02;;;;;;;14.70;3.30;;;;;;;5.60;100.00;101396.44;5029498;28;20033;-78
2023/01/14 00:53:28;;;;;;;12.10;4.68;;;;;;;5.60;100.00;101403.56;5029732;28;20022;-78
2023/01/14 00:55:54;;;;;;;13.32;3.17;;;;;;;5.55;100.00;101404.00;5029439;28;20037;-78
2023/01/14 00:58:20;;;;;;;19.08;3.97;;;;;;;5.61;100.00;101416.66;5029269;28;20040;-78
2023/01/14 01:00:46;;;;;;;15.73;4.63;;;;;;;5.49;100.00;101410.72;5029131;28;20033;-78
2023/01/14 01:03:12;;;;;;;19.75;3.75;;;;;;;5.49;100.00;101423.97;5029151;28;20025;-78
2023/01/14 01:05:38;;;;;;;12.95;3.63;;;;;;;5.35;100.00;101410.44;5029196;28;20032;-78
2023/01/14 01:08:05;;;;;;;41.00;4.70;;;;;;;5.32;100.00;101413.34;5029267;28;20029;-78
2023/01/14 01:10:33;;;;;;;16.33;4.47;;;;;;;5.27;100.00;101413.81;5029112;28;20359;-78
2023/01/14 01:12:59;;;;;;;16.00;4.10;;;;;;;5.37;100.00;101434.88;5029315;28;20072;-78
2023/01/14 01:15:24;;;;;;;17.73;5.22;;;;;;;5.35;100.00;101447.47;5029200;28;20116;-78
2023/01/14 01:17:50;;;;;;;18.80;3.85;;;;;;;5.30;100.00;101442.59;5011219;28;20045;-78
2023/01/14 01:20:15;;;;;;;15.27;4.38;;;;;;;5.13;100.00;101422.22;5029086;28;20377;-78
2023/01/14 01:22:40;;;;;;;18.30;3.38;;;;;;;5.28;100.00;101447.19;5029010;28;20030;-78
2023/01/14 01:25:06;;;;;;;21.48;4.68;;;;;;;5.26;100.00;101449.97;5028888;28;20370;-78
2023/01/14 01:27:32;;;;;;;14.27;4.68;;;;;;;5.25;100.00;101445.69;5029074;28;20029;-78
2023/01/14 01:29:57;;;;;;;21.48;3.13;;;;;;;5.25;100.00;101435.09;5028975;28;20036;-78
2023/01/14 01:32:24;;;;;;;20.35;5.28;;;;;;;5.24;100.00;101441.38;5028951;28;20630;-78
2023/01/14 01:34:49;;;;;;;21.15;5.03;;;;;;;5.08;100.00;101414.72;5029050;28;20456;-78
2023/01/14 01:37:14;;;;;;;21.02;5.28;;;;;;;5.20;100.00;101440.00;5028940;28;20112;-78
2023/01/14 01:39:40;;;;;;;23.00;3.85;;;;;;;5.21;100.00;101433.75;5028805;28;20029;-78
2023/01/14 01:42:12;;;;;;;25.40;5.50;;;;;;;5.01;100.00;101403.09;5029273;28;20126;-78
2023/01/14 01:44:37;;;;;;;21.30;4.68;;;;;;;5.14;100.00;101437.94;5011146;28;20075;-78
2023/01/14 01:47:02;;;;;;;22.25;5.35;;;;;;;5.12;100.00;101426.69;5029047;28;20026;-78
2023/01/14 01:49:32;;;;;;;15.02;2.97;;;;;;;5.07;100.00;101421.00;5031882;28;20075;-78
2023/01/14 01:52:03;;;;;;;20.83;4.85;;;;;;;5.11;100.00;101422.38;5014900;28;20460;-78
2023/01/14 01:54:32;;;;;;;19.85;5.07;;;;;;;5.00;100.00;101404.06;5032637;28;20210;-78
2023/01/14 01:56:59;;;;;;;22.02;4.93;;;;;;;4.95;100.00;101401.88;5032608;28;20026;-78
2023/01/14 01:59:29;;;;;;;16.67;5.78;;;;;;;5.08;100.00;101421.81;5032500;28;20029;-78
2023/01/14 02:01:55;;;;;;;27.83;8.00;;;;;;;5.11;100.00;101427.66;5032609;28;20064;-78
2023/01/14 02:04:21;;;;;;;15.88;3.75;;;;;;;4.99;100.00;101412.97;5032559;28;20025;-78
2023/01/14 02:06:47;;;;;;;11.55;3.65;;;;;;;4.95;100.00;101408.94;5032314;28;20504;-78
2023/01/14 02:09:13;;;;;;;19.00;4.25;;;;;;;5.00;100.00;101417.28;5032209;28;20361;-78
2023/01/14 02:12:00;;;;;;;22.05;5.03;;;;;;;5.04;100.00;101416.00;5032201;28;20506;-78
2023/01/14 02:15:07;;;;;;;25.10;4.35;;;;;;;5.01;100.00;101411.84;5032204;28;20669;-78
2023/01/14 02:17:32;;;;;;;23.90;4.78;;;;;;;4.98;100.00;101404.22;4951433;28;20067;-78
2023/01/14 02:20:13;;;;;;;16.35;3.80;;;;;;;4.76;100.00;101368.41;4951649;28;20039;-78
2023/01/14 02:22:50;;;;;;;14.80;4.03;;;;;;;4.95;100.00;101393.09;4998449;28;20107;-77
2023/01/14 02:25:37;;;;;;;14.18;3.20;;;;;;;4.92;100.00;101385.44;5032162;28;20057;-83
2023/01/14 02:28:56;;;;;;;20.15;5.47;;;;;;;4.91;100.00;101373.22;5014086;28;20492;-83
2023/01/14 02:31:45;;;;;;;15.32;4.45;;;;;;;4.91;100.00;101362.66;4932264;29;20043;-83
2023/01/14 02:34:19;;;;;;;21.40;4.45;;;;;;;4.87;100.00;101361.28;5031820;28;20112;-83
2023/01/14 02:36:50;;;;;;;19.65;4.13;;;;;;;4.83;100.00;101348.34;5031891;28;20025;-83
2023/01/14 02:39:49;;;;;;;21.73;4.55;;;;;;;4.89;100.00;101352.22;5031982;28;20014;-83
2023/01/14 02:45:54;;;;;;;34.33;5.35;;;;;;;4.84;100.00;101335.97;5031928;28;20116;-83
2023/01/14 02:48:23;;;;;;;22.70;5.90;;;;;;;4.82;100.00;101336.13;4951169;28;20038;-83
2023/01/14 02:50:49;;;;;;;18.65;4.53;;;;;;;4.82;100.00;101324.72;4951366;29;20031;-83
2023/01/14 02:53:18;;;;;;;16.25;5.88;;;;;;;4.82;100.00;101330.00;4974074;28;20041;-83
2023/01/14 02:55:44;;;;;;;14.00;3.90;;;;;;;4.80;100.00;101324.88;5031671;28;20505;-83
2023/01/14 02:58:27;;;;;;;23.15;4.88;;;;;;;4.81;100.00;101337.09;5031727;28;20070;-83
2023/01/14 03:00:52;;;;;;;18.42;3.45;;;;;;;4.82;100.00;101327.34;5030888;28;20114;-83
2023/01/14 03:03:26;;;;;;;17.45;3.45;;;;;;;4.81;100.00;101321.25;5013710;28;20080;-83
2023/01/14 03:05:58;;;;;;;16.65;3.25;;;;;;;4.76;100.00;101327.94;5013461;28;20025;-82
2023/01/14 03:08:40;;;;;;;15.80;3.15;;;;;;;4.81;100.00;101330.97;5031446;28;20032;-82
2023/01/14 03:11:08;;;;;;;22.88;4.47;;;;;;;4.77;100.00;101313.78;5031105;28;20037;-83
2023/01/14 03:13:49;;;;;;;15.02;3.67;;;;;;;4.79;100.00;101310.00;5031166;28;20026;-83
2023/01/14 03:16:41;;;;;;;16.77;3.42;;;;;;;4.75;100.00;101305.16;5012885;28;20052;-83
2023/01/14 03:19:12;;;;;;;;;;;;;;;4.78;100.00;101310.16;5031366;28;20025;-83
2023/01/14 03:21:43;;;;;;;9.63;3.03;;;;;;;4.75;100.00;101294.59;5031094;28;20369;-83
2023/01/14 03:24:22;;;;;;;19.58;5.63;;;;;;;4.72;100.00;101292.25;5031069;28;20268;-83
2023/01/14 03:26:51;;;;;;;17.52;3.83;;;;;;;4.72;100.00;101294.88;5030862;28;20091;-83
2023/01/14 03:29:24;;;;;;;10.90;4.18;;;;;;;4.70;100.00;101288.91;5030980;28;20030;-83
2023/01/14 03:31:55;;;;;;;12.65;3.13;;;;;;;4.69;100.00;101282.81;5030992;28;20468;-83
2023/01/14 03:34:28;;;;;;;14.90;3.45;;;;;;;4.71;100.00;101285.28;5030904;28;20072;-83
2023/01/14 03:36:57;;;;;;;15.30;5.15;;;;;;;4.79;100.00;101286.22;5031079;28;20032;-82
2023/01/14 03:39:26;;;;;;;19.67;6.30;;;;;;;4.81;100.00;101284.25;5012978;28;20080;-83
2023/01/14 03:45:00;;;;;;;15.85;3.97;;;;;;;4.91;100.00;101280.72;5030959;28;20063;-82
2023/01/14 03:47:34;;;;;;;19.02;4.80;;;;;;;4.91;100.00;101265.69;5030730;28;20036;-82
2023/01/14 03:50:03;;;;;;;25.92;6.07;;;;;;;4.93;100.00;101268.19;5030282;28;20044;-83
2023/01/14 03:52:53;;;;;;;12.43;4.20;;;;;;;5.04;100.00;101281.19;5030294;28;20021;-82
2023/01/14 03:55:33;;;;;;;18.35;5.05;;;;;;;5.05;100.00;101273.09;5030568;28;20455;-83
2023/01/14 03:58:12;;;;;;;16.05;2.85;;;;;;;5.08;100.00;101263.22;5028891;28;20105;-82
2023/01/14 04:01:10;;;;;;;18.27;3.85;;;;;;;5.10;100.00;101270.00;5030620;28;20052;-82
2023/01/14 04:03:36;;;;;;;16.90;3.30;;;;;;;5.09;100.00;101265.72;5030173;28;20497;-82
2023/01/14 04:06:03;;;;;;;15.77;3.90;;;;;;;5.08;100.00;101261.38;5030424;28;20037;-82
2023/01/14 04:08:28;;;;;;;19.20;4.63;;;;;;;5.04;100.00;101241.53;5030256;28;20086;-83
2023/01/14 04:10:54;;;;;;;18.05;3.72;;;;;;;5.05;100.00;101241.38;5030128;28;20042;-82
2023/01/14 04:16:03;;;;;;;13.60;4.47;;;;;;;5.08;100.00;101232.31;5030518;28;20052;-83
2023/01/14 04:18:29;;;;;;;10.05;2.92;;;;;;;5.07;100.00;101228.00;5012193;28;20050;-83
2023/01/14 04:20:54;;;;;;;17.65;3.88;;;;;;;5.05;100.00;101211.47;5030294;28;20049;-82
2023/01/14 04:23:19;;;;;;;15.50;4.03;;;;;;;5.05;100.00;101214.09;4995549;28;20477;-82
2023/01/14 04:25:45;;;;;;;21.20;4.05;;;;;;;5.07;100.00;101211.31;5029986;28;20037;-82
2023/01/14 04:28:11;;;;;;;16.58;2.95;;;;;;;5.03;100.00;101211.63;5012030;28;20111;-82
2023/01/14 04:30:36;;;;;;;19.83;4.80;;;;;;;5.01;100.00;101205.66;5012094;28;20268;-82
2023/01/14 04:33:01;;;;;;;14.73;3.58;;;;;;;5.02;100.00;101209.97;5030038;28;20025;-82
2023/01/14 04:35:27;;;;;;;18.30;4.18;;;;;;;5.02;100.00;101198.56;5029983;28;20499;-82
2023/01/14 04:37:54;;;;;;;16.67;4.05;;;;;;;5.08;100.00;101192.66;5012012;28;20037;-82
2023/01/14 04:40:20;;;;;;;12.80;3.28;;;;;;;5.08;100.00;101182.06;5029947;28;20041;-82
2023/01/14 04:42:46;;;;;;;15.10;2.92;;;;;;;5.07;100.00;101184.88;5029674;28;20438;-83
2023/01/14 04:45:11;;;;;;;19.65;5.53;;;;;;;5.02;100.00;101161.56;5029847;28;20061;-84
2023/01/14 04:47:38;;;;;;;12.70;3.58;;;;;;;5.08;100.00;101165.38;5029648;28;20037;-84
2023/01/14 04:50:30;;;;;;;21.73;4.20;;;;;;;5.03;100.00;101163.19;5029755;28;20033;-84
2023/01/14 04:52:50;;;;;;;12.07;3.05;;;;;;;5.09;100.00;101175.00;5014771;28;20063;-84
2023/01/14 04:55:15;;;;;;;13.45;3.90;;;;;;;4.99;100.00;101160.03;5029558;28;20029;-84
2023/01/14 04:57:41;;;;;;;13.52;3.92;;;;;;;5.03;100.00;101169.34;5029565;28;20034;-84
2023/01/14 05:00:07;;;;;;;31.77;5.18;;;;;;;5.07;100.00;101164.56;5011803;28;20029;-84
2023/01/14 05:02:33;;;;;;;13.90;3.38;;;;;;;5.07;100.00;101156.63;5029669;28;20099;-85
2023/01/14 05:04:58;;;;;;;11.05;4.05;;;;;;;5.07;100.00;101154.00;5029456;28;20037;-84
2023/01/14 05:07:23;;;;;;;10.38;2.85;;;;;;;5.10;100.00;101150.22;5029437;28;20033;-84
2023/01/14 05:09:49;;;;;;;16.25;4.18;;;;;;;5.05;100.00;101145.38;5029321;28;20033;-86
2023/01/14 05:12:14;;;;;;;8.52;2.75;;;;;;;5.07;100.00;101145.25;5011609;28;20044;-86
2023/01/14 05:14:39;;;;;;;12.48;3.33;;;;;;;5.13;100.00;101140.16;4979095;28;20445;-85
2023/01/14 05:17:05;;;;;;;10.93;3.00;;;;;;;5.14;100.00;101141.00;5029333;28;20033;-84
2023/01/14 05:19:30;;;;;;;19.30;3.67;;;;;;;5.12;100.00;101127.09;5029420;28;20064;-85
2023/01/14 05:21:55;;;;;;;11.18;3.17;;;;;;;5.14;100.00;101114.56;5011592;28;20034;-85
2023/01/14 05:24:21;;;;;;;15.65;3.15;;;;;;;5.19;100.00;101130.81;5032370;28;20034;-84
2023/01/14 05:26:46;;;;;;;13.13;3.20;;;;;;;5.18;100.00;101113.25;5033155;28;20065;-84
2023/01/14 05:29:11;;;;;;;15.48;2.17;;;;;;;5.20;100.00;101112.13;5033327;28;20025;-85
2023/01/14 05:31:37;;;;;;;12.00;2.63;;;;;;;5.21;100.00;101112.94;5033187;28;20033;-84
2023/01/14 05:34:03;;;;;;;16.42;4.25;;;;;;;5.23;100.00;101106.50;5033044;28;20083;-84
2023/01/14 05:36:28;;;;;;;10.82;2.60;;;;;;;5.22;100.00;101093.47;5033126;28;20037;-84
2023/01/14 05:38:54;;;;;;;15.65;2.90;;;;;;;5.20;100.00;101080.38;5033040;28;20491;-84
2023/01/14 05:41:19;;;;;;;9.93;2.70;;;;;;;5.22;100.00;101067.03;5015674;28;20037;-85
2023/01/14 05:46:28;;;;;;;18.17;2.90;;;;;;;5.20;100.00;101053.94;5017978;28;20048;-85
2023/01/14 05:48:54;;;;;;;22.27;3.20;;;;;;;5.28;100.00;101051.34;5032746;28;20385;-84
2023/01/14 05:51:19;;;;;;;13.15;3.17;;;;;;;5.29;100.00;101041.59;5015337;28;20037;-84
2023/01/14 05:53:44;;;;;;;12.23;2.75;;;;;;;5.30;100.00;101034.50;5032821;28;20427;-84
2023/01/14 05:56:10;;;;;;;10.85;3.13;;;;;;;5.30;100.00;101035.34;5032783;28;20033;-85
2023/01/14 05:58:37;;;;;;;17.98;2.90;;;;;;;5.32;100.00;101025.44;5032757;28;20595;-85
2023/01/14 06:06:36;;;;;;;12.15;2.80;;;;;;;5.34;100.00;101002.28;5032784;28;20045;-85
2023/01/14 06:09:09;;;;;;;9.15;2.72;;;;;;;5.34;100.00;100990.88;5032450;28;20519;-84
2023/01/14 06:11:34;;;;;;;11.80;3.58;;;;;;;5.36;100.00;100988.91;5032177;28;20037;-85
2023/01/14 06:14:01;;;;;;;13.13;2.88;;;;;;;5.38;100.00;100992.22;5014636;28;20036;-84
2023/01/14 06:16:31;;;;;;;10.13;3.08;;;;;;;5.41;100.00;100992.72;5032345;28;20034;-85
2023/01/14 06:18:57;;;;;;;10.10;3.35;;;;;;;5.43;100.00;100992.59;5032385;28;20045;-84
2023/01/14 06:21:29;;;;;;;11.80;2.75;;;;;;;5.42;100.00;100980.31;5032201;28;20556;-85
2023/01/14 06:23:56;;;;;;;14.30;3.40;;;;;;;5.47;100.00;100986.78;5032110;28;20025;-85
2023/01/14 06:26:27;;;;;;;12.20;2.45;;;;;;;5.49;100.00;100976.88;5031717;28;20029;-85
2023/01/14 06:28:54;;;;;;;9.25;3.05;;;;;;;5.47;100.00;100965.63;5032213;28;20034;-85
2023/01/14 06:31:20;;;;;;;9.35;2.40;;;;;;;5.54;100.00;100970.31;5032144;28;20057;-85
2023/01/14 06:33:45;;;;;;;14.10;2.88;;;;;;;5.58;100.00;100961.03;5032365;28;20061;-85
2023/01/14 06:36:13;;;;;;;15.95;4.88;;;;;;;5.58;100.00;100959.25;5031075;28;20021;-84
2023/01/14 06:38:39;;;;;;;7.13;4.05;;;;;;;5.60;100.00;100943.19;5031822;28;20034;-84
2023/01/14 06:41:07;;;;;;;19.60;4.32;;;;;;;5.55;100.00;100926.97;5031843;28;20481;-84
2023/01/14 06:43:34;;;;;;;15.93;2.33;;;;;;;5.63;100.00;100938.41;5031964;28;20480;-84
2023/01/14 06:45:59;;;;;;;10.07;2.63;;;;;;;5.62;100.00;100928.81;5032087;28;20029;-84
2023/01/14 06:48:25;;;;;;;12.98;2.83;;;;;;;5.60;100.00;100914.91;5031750;28;20401;-84
2023/01/14 06:50:52;;;;;;;13.75;4.07;;;;;;;5.60;100.00;100914.91;5031480;28;20025;-84
2023/01/14 06:53:18;;;;;;;14.27;2.80;;;;;;;5.61;100.00;100911.28;5031529;28;20037;-85
2023/01/14 06:55:45;;;;;;;14.82;2.10;;;;;;;5.51;100.00;100886.81;5031513;28;20611;-77
2023/01/14 06:58:11;;;;;;;19.98;5.38;;;;;;;5.55;100.00;100888.09;5031414;28;20377;-76
2023/01/14 07:00:36;;;;;;;14.00;4.13;;;;;;;5.50;100.00;100874.53;5031534;28;20021;-77
2023/01/14 07:03:02;;;;;;;11.10;2.40;;;;;;;5.56;100.00;100881.03;5031442;28;20534;-77
2023/01/14 07:05:27;;;;;;;20.77;3.90;;;;;;;5.57;100.00;100885.31;5031324;28;20082;-77
2023/01/14 07:07:53;;;;;;;17.13;4.10;;;;;;;5.52;100.00;100869.09;5031217;28;20045;-77
2023/01/14 07:10:19;;;;;;;9.75;3.42;;;;;;;5.51;100.00;100865.63;5031196;28;20083;-77
2023/01/14 07:12:46;;;;;;;18.27;2.90;;;;;;;5.57;100.00;100858.88;5031156;28;20041;-77
2023/01/14 07:15:12;;;;;;;17.40;2.75;;;;;;;5.51;100.00;100844.47;5031259;28;20068;-76
2023/01/14 07:17:37;;;;;;;16.52;2.97;;;;;;;5.57;100.00;100846.47;5031117;28;20092;-77
2023/01/14 07:20:03;;;;;;;13.98;3.30;;;;;;;5.56;100.00;100844.81;5031107;28;20396;-77
2023/01/14 07:22:29;;;;;;;10.20;2.17;;;;;;;5.51;100.00;100827.78;5013402;28;20112;-77
2023/01/14 07:24:54;;;;;;;14.90;2.80;;;;;;;5.57;100.00;100820.00;5030916;28;20025;-77
2023/01/14 07:27:20;;;;;;;18.25;4.28;;;;;;;5.54;100.00;100806.28;5030951;28;20056;-77
2023/01/14 07:29:45;;;;;;;7.18;3.35;;;;;;;5.56;100.00;100809.59;5030830;28;20081;-77
2023/01/14 07:32:10;;;;;;;17.15;3.17;;;;;;;5.51;100.00;100780.16;5030607;28;20071;-77
2023/01/14 07:34:36;;;;;;;8.43;3.33;;;;;;;5.55;100.00;100792.06;5030788;28;20638;-77
2023/01/14 07:37:01;;;;;;;10.77;2.50;;;;;;;5.57;100.00;100798.84;5030625;28;20065;-77
2023/01/14 07:39:26;;;;;;;12.27;2.97;;;;;;;5.57;100.00;100774.22;5030731;28;20477;-77
2023/01/14 07:41:52;;;;;;;18.33;3.70;;;;;;;5.52;100.00;100772.06;5030698;28;20037;-77
2023/01/14 07:44:23;;;;;;;12.15;2.75;;;;;;;5.55;100.00;100766.41;5030588;28;20033;-77
2023/01/14 07:46:53;;;;;;;10.52;2.53;;;;;;;5.45;100.00;100748.09;5030404;28;20043;-77
2023/01/14 07:49:20;;;;;;;11.73;4.15;;;;;;;5.61;100.00;100762.31;5030497;28;20369;-77
2023/01/14 07:51:47;;;;;;;9.93;3.20;;;;;;;5.58;100.00;100762.63;5030211;28;20057;-77
2023/01/14 07:54:13;;;;;;;13.50;4.05;;;;;;;5.61;100.00;100743.78;5030444;28;20030;-77
2023/01/14 07:56:38;;;;;;;10.57;2.42;;;;;;;5.63;100.00;100740.00;5030200;28;20040;-77
2023/01/14 07:59:04;;;;;;;11.77;2.75;;;;;;;5.62;100.00;100719.81;5030355;28;20017;-77
2023/01/14 08:01:29;;;;;;;10.00;2.75;;;;;;;5.51;100.00;100699.00;5030146;28;20624;-77
2023/01/14 08:03:55;;;;;;;8.00;2.53;;;;;;;5.61;100.00;100702.28;5030110;28;20428;-77
2023/01/14 08:06:20;;;;;;;8.32;2.65;;;;;;;5.60;100.00;100687.38;5029853;28;20036;-77
2023/01/14 08:08:46;;;;;;;15.77;3.92;;;;;;;5.67;100.00;100691.03;5030025;28;20029;-77
2023/01/14 08:11:11;;;;;;;11.43;3.53;;;;;;;5.70;100.00;100673.97;5029954;28;20481;-77
2023/01/14 08:13:37;;;;;;;8.48;3.38;;;;;;;5.71;100.00;100659.75;5029829;28;20029;-77
2023/01/14 08:16:03;;;;;;;5.93;1.63;;;;;;;5.70;100.00;100666.03;5029875;28;20386;-77
2023/01/14 08:18:31;;;;;;;8.23;2.55;;;;;;;5.67;100.00;100645.22;5011708;28;20049;-78
2023/01/14 08:21:03;;;;;;;5.75;1.85;;;;;;;5.74;100.00;100646.19;5029659;28;20033;-77
2023/01/14 08:23:28;;;;;;;;;;;;;;;5.78;100.00;100631.63;5030234;28;20033;-77
2023/01/14 08:25:58;;;;;;;11.20;3.35;;;;;;;5.82;100.00;100632.94;5030070;28;19924;-77
2023/01/14 08:28:23;;;;;;;9.77;2.63;;;;;;;5.63;100.00;100597.13;5012134;28;20041;-78
2023/01/14 08:30:49;;;;;;;7.70;2.85;;;;;;;5.85;100.00;100605.31;5029594;28;20026;-76
2023/01/14 08:33:14;;;;;;;6.43;2.67;;;;;;;5.87;100.00;100614.72;5011699;28;20104;-76
2023/01/14 08:35:40;;;;;;;6.18;2.35;;;;;;;5.87;100.00;100604.13;5029429;28;20048;-84
2023/01/14 08:38:07;;;;;;;5.75;1.83;;;;;;;5.89;100.00;100585.44;5029749;28;20025;-77
2023/01/14 08:40:33;;;;;;;4.07;2.53;;;;;;;5.85;100.00;100577.03;5029675;28;20029;-78
2023/01/14 08:42:58;;;;;;;14.77;3.72;;;;;;;5.95;100.00;100576.84;5029429;28;20496;-77
2023/01/14 08:45:24;;;;;;;6.97;1.80;;;;;;;5.92;100.00;100559.47;5029846;28;20045;-77
2023/01/14 08:47:49;;;;;;;5.03;2.13;;;;;;;5.98;100.00;100563.25;5029229;28;20370;-77
2023/01/14 08:50:15;;;;;;;9.93;2.38;;;;;;;6.02;100.00;100545.19;5029230;28;20038;-77
2023/01/14 08:52:41;;;;;;;4.55;1.92;;;;;;;6.07;100.00;100546.31;5029365;28;20025;-77
2023/01/14 08:55:06;;;;;;;6.18;1.67;;;;;;;6.13;100.00;100536.84;5029346;28;20037;-77
2023/01/14 08:57:32;;;;;;;4.85;2.20;;;;;;;6.13;100.00;100529.75;5028686;28;20025;-76
2023/01/14 08:59:57;;;;;;;5.30;1.88;;;;;;;6.20;100.00;100531.69;5011306;28;20029;-76
2023/01/14 09:02:23;;;;;;;4.05;1.90;;;;;;;6.21;100.00;100518.28;5029038;28;20030;-76
2023/01/14 09:04:48;;;;;;;4.63;1.40;;;;;;;6.25;100.00;100495.72;5011422;28;20029;-76
2023/01/14 09:18:09;;;;;;;4.43;1.35;;;;;;;6.34;100.00;100454.09;5008224;28;20057;-76
2023/01/14 09:20:38;;;;;;;9.57;2.15;;;;;;;6.39;100.00;100461.53;4991792;28;20041;-76
2023/01/14 09:23:05;;;;;;;5.78;1.83;;;;;;;6.40;100.00;100453.41;5009582;28;20061;-76
2023/01/14 09:25:31;;;;;;;4.85;1.90;;;;;;;6.43;100.00;100453.03;5008610;28;20022;-76
2023/01/14 09:27:56;;;;;;;7.13;1.30;;;;;;;6.48;100.00;100463.09;4975367;28;20180;-76
2023/01/14 09:30:22;;;;;;;6.65;2.30;;;;;;;6.50;100.00;100459.28;5007816;28;20030;-76
2023/01/14 09:32:47;;;;;;;7.10;1.38;;;;;;;6.45;100.00;100451.03;5009229;28;20022;-76
2023/01/14 09:35:13;;;;;;;8.18;2.60;;;;;;;6.50;100.00;100443.38;5009172;28;20026;-76
2023/01/14 09:37:38;;;;;;;6.25;1.60;;;;;;;6.50;100.00;100434.63;5007748;28;20033;-76
2023/01/14 09:40:04;;;;;;;8.77;4.65;;;;;;;6.54;100.00;100434.06;4991401;28;20370;-76
2023/01/14 09:42:34;;;;;;;3.83;1.80;;;;;;;6.58;100.00;100416.00;5009027;28;20033;-76
2023/01/14 09:45:13;;;;;;;3.95;1.40;;;;;;;6.55;100.00;100401.28;5009463;28;20363;-76
2023/01/14 09:47:39;;;;;;;5.72;1.40;;;;;;;6.57;100.00;100401.06;5007715;28;20037;-76
2023/01/14 09:50:13;;;;;;;5.25;1.63;;;;;;;6.59;100.00;100388.47;5009098;28;20493;-76
2023/01/14 09:53:01;;;;;;;3.85;1.52;;;;;;;6.64;100.00;100388.75;5009284;28;20057;-75
2023/01/14 09:55:48;;;;;;;4.20;1.95;;;;;;;6.66;100.00;100380.63;5009256;28;20030;-77
2023/01/14 09:58:40;;;;;;;5.15;1.67;;;;;;;6.67;100.00;100372.47;5008873;28;20482;-77
2023/01/14 10:01:20;;;;;;;7.82;1.63;;;;;;;6.66;100.00;100364.75;5004657;28;20060;-77
2023/01/14 10:04:16;;;;;;;8.73;1.80;;;;;;;6.65;100.00;100349.81;5008799;28;20034;-76
2023/01/14 10:06:43;;;;;;;6.15;1.55;;;;;;;6.74;100.00;100357.50;5007624;28;20022;-77
2023/01/14 10:09:24;;;;;;;6.05;2.05;;;;;;;6.76;100.00;100339.59;5010218;28;20033;-79
2023/01/14 10:11:50;;;;;;;4.07;1.27;;;;;;;6.77;100.00;100332.47;5011835;28;20370;-79
2023/01/14 10:14:23;;;;;;;7.78;1.80;;;;;;;6.82;100.00;100314.19;5013299;28;20338;-79
2023/01/14 10:16:58;;;;;;;4.45;1.63;;;;;;;6.83;100.00;100312.34;5013349;28;20113;-78
2023/01/14 10:19:48;;;;;;;2.97;1.45;;;;;;;6.88;100.00;100302.81;5011974;28;20026;-77
2023/01/14 10:22:38;;;;;;;6.30;1.75;;;;;;;6.82;100.00;100282.38;5013054;28;20030;-79
2023/01/14 10:25:14;;;;;;;4.55;1.80;;;;;;;6.94;100.00;100272.09;5012749;28;20025;-82
2023/01/14 10:27:41;;;;;;;5.32;2.67;;;;;;;6.93;100.00;100263.31;5013517;28;20030;-79
2023/01/14 10:30:22;;;;;;;7.03;2.15;;;;;;;6.92;100.00;100250.28;4995004;28;20049;-80
2023/01/14 10:32:51;;;;;;;6.80;2.23;;;;;;;6.99;100.00;100236.06;5011501;28;20368;-75
2023/01/14 10:35:42;;;;;;;4.40;1.40;;;;;;;7.08;100.00;100230.66;5012410;28;20268;-77
2023/01/14 10:38:15;;;;;;;3.92;1.50;;;;;;;7.14;100.00;100235.19;5011597;28;20061;-79
2023/01/14 10:40:41;;;;;;;8.75;1.40;;;;;;;7.10;100.00;100232.13;5013193;28;20022;-79
2023/01/14 10:43:24;;;;;;;4.22;1.27;;;;;;;7.21;100.00;100225.47;5012832;28;20034;-79
2023/01/14 10:45:50;;;;;;;7.53;1.60;;;;;;;7.18;100.00;100209.94;5013032;28;20030;-79
2023/01/14 10:48:20;;;;;;;4.43;2.08;;;;;;;7.23;100.00;100204.88;5013024;28;20048;-80
2023/01/14 10:50:46;;;;;;;3.55;1.58;;;;;;;7.30;100.00;100205.75;5012485;28;20072;-79
2023/01/14 10:53:23;;;;;;;3.80;1.35;;;;;;;7.35;100.00;100184.78;5012640;28;20038;-79
2023/01/14 10:56:00;;;;;;;4.78;2.50;;;;;;;7.37;100.00;100176.63;5012493;28;20022;-79
2023/01/14 10:58:36;;;;;;;4.72;1.98;;;;;;;7.42;100.00;100185.66;5012653;28;20033;-80
2023/01/14 11:01:06;;;;;;;2.33;1.10;;;;;;;7.40;100.00;100168.28;5012724;28;20072;-80
2023/01/14 11:03:48;;;;;;;6.20;1.70;;;;;;;7.40;100.00;100139.94;5012727;28;20041;-79
2023/01/14 11:06:16;;;;;;;3.60;1.45;;;;;;;7.39;100.00;100135.66;5011552;28;20436;-80
2023/01/14 11:08:50;;;;;;;5.30;1.10;;;;;;;7.47;100.00;100132.84;5011369;28;20480;-79
2023/01/14 11:11:38;;;;;;;4.20;1.48;;;;;;;7.49;100.00;100114.06;5012668;28;20062;-80
2023/01/14 11:14:22;;;;;;;3.25;1.23;;;;;;;7.61;100.00;100123.13;5012205;28;20072;-80
2023/01/14 11:16:47;;;;;;;7.22;1.30;;;;;;;7.57;100.00;100094.50;5011618;28;20466;-80
2023/01/14 11:19:16;;;;;;;4.55;1.48;;;;;;;7.66;100.00;100117.25;5031929;28;20052;-80
2023/01/14 11:21:48;;;;;;;6.68;1.30;;;;;;;7.65;100.00;100100.50;5031532;28;20492;-81
2023/01/14 11:24:39;;;;;;;6.13;1.13;;;;;;;7.69;100.00;100088.47;5032269;28;20100;-80
2023/01/14 11:27:19;;;;;;;3.00;1.23;;;;;;;7.75;100.00;100089.50;5031794;28;20108;-78
2023/01/14 11:29:52;;;;;;;0.95;0.77;;;;;;;7.75;100.00;100078.06;5027355;28;20072;-76
2023/01/14 11:32:37;;;;;;;4.05;1.10;;;;;;;7.81;100.00;100080.78;5007814;28;20071;-79
2023/01/14 11:35:09;;;;;;;6.60;2.10;;;;;;;7.83;100.00;100060.16;5027691;28;20025;-79
2023/01/14 11:37:38;;;;;;;3.85;0.98;;;;;;;7.87;100.00;100066.69;5026417;28;20472;-80
2023/01/14 11:40:05;;;;;;;2.17;1.13;;;;;;;7.92;100.00;100065.28;5027878;28;20036;-81
2023/01/14 11:42:35;;;;;;;4.03;0.90;;;;;;;7.93;100.00;100061.63;5027746;28;20037;-80
2023/01/14 11:45:12;;;;;;;1.77;1.20;;;;;;;7.97;100.00;100042.44;5027466;28;20021;-81
2023/01/14 11:47:52;;;;;;;3.58;1.90;;;;;;;7.95;100.00;100044.47;5024635;28;20037;-81
2023/01/14 11:50:30;;;;;;;1.77;1.08;;;;;;;7.99;100.00;100042.22;5027133;28;20025;-79
2023/01/14 11:53:14;;;;;;;3.50;0.95;;;;;;;7.99;100.00;100042.22;5026497;28;20028;-80
2023/01/14 11:55:40;;;;;;;1.30;1.20;;;;;;;7.98;100.00;100035.28;5027375;28;20063;-80
2023/01/14 11:58:19;;;;;;;3.03;1.33;;;;;;;7.92;100.00;100022.81;5027079;28;20033;-81
2023/01/14 12:00:50;;;;;;;1.13;0.70;;;;;;;8.04;100.00;100026.50;5008140;28;20070;-80